Latest Weather Observations for Ocean Reef

IDW60801

Issued at 8:05 pm WST Thursday 23 October 2014 (issued every 30 minutes, with the page automatically refreshed every 10 minutes)

About weather observations | Map of weather stations | Latest weather observations for WA | Other Formats
Station Details ID: 009214 Name: OCEAN REEF Lat: -31.76 Lon: 115.73 Height: 10.0 m
Data from the previous 72 hours. | See also: Recent months for locations in Western Australia
Date/Time
WST
Temp
°C
App
Temp
°C
Dew
Point
Rel
Hum
%
Delta-T
°C
Wind Press
QNH
hPa
Press
MSL
hPa
Rain
since 9 am
mm
Dir
 
Spd
km/h
Gust
km/h
Spd
kts
Gust
kts
23/08:00pm - - - - - S 26 32 14 17 - - -
23/07:30pm - - - - - S 26 32 14 17 - - -
23/07:00pm - - - - - S 28 33 15 18 - - -
23/06:30pm - - - - - SSW 28 32 15 17 - - -
23/06:00pm - - - - - SSW 28 32 15 17 - - -
23/05:30pm - - - - - SSW 26 30 14 16 - - -
23/05:00pm - - - - - SSW 24 30 13 16 - - -
23/04:30pm - - - - - S 28 32 15 17 - - -
23/04:00pm - - - - - S 30 33 16 18 - - -
23/03:30pm - - - - - SSW 26 30 14 16 - - -
23/03:00pm - - - - - SW 24 30 13 16 - - -
23/02:30pm - - - - - SW 24 28 13 15 - - -
23/02:00pm - - - - - SW 24 30 13 16 - - -
23/01:30pm - - - - - SW 24 30 13 16 - - -
23/01:00pm - - - - - SW 24 28 13 15 - - -
23/12:30pm - - - - - SW 20 28 11 15 - - -
23/12:00pm - - - - - WSW 24 30 13 16 - - -
23/11:30am - - - - - WSW 24 28 13 15 - - -
23/11:00am - - - - - W 24 28 13 15 - - -
23/10:30am - - - - - W 24 28 13 15 - - -
23/10:00am - - - - - W 26 30 14 16 - - -
23/09:30am - - - - - W 26 30 14 16 - - -
23/09:00am - - - - - W 26 30 14 16 - - -
23/08:30am - - - - - W 24 28 13 15 - - -
23/08:00am - - - - - WSW 28 32 15 17 - - -
23/07:30am - - - - - W 28 33 15 18 - - -
23/07:00am - - - - - W 28 32 15 17 - - -
23/06:30am - - - - - W 28 32 15 17 - - -
23/06:00am - - - - - W 28 32 15 17 - - -
23/05:30am - - - - - W 28 32 15 17 - - -
23/05:00am - - - - - W 26 28 14 15 - - -
23/04:30am - - - - - W 26 30 14 16 - - -
23/04:00am - - - - - W 32 37 17 20 - - -
23/03:30am - - - - - WNW 28 33 15 18 - - -
23/03:00am - - - - - WNW 32 39 17 21 - - -
23/02:30am - - - - - WNW 33 39 18 21 - - -
23/02:00am - - - - - WNW 24 30 13 16 - - -
23/01:30am - - - - - N 17 22 9 12 - - -
23/01:00am - - - - - N 13 20 7 11 - - -
23/12:30am - - - - - N 9 13 5 7 - - -
23/12:00am - - - - - NNE 11 15 6 8 - - -
 
Date/Time
WST
Temp
°C
App
Temp
°C
Dew
Point
Rel
Hum
%
Delta-T
°C
Wind Press
QNH
hPa
Press
MSL
hPa
Rain
since 9 am
mm
Dir
 
Spd
km/h
Gust
km/h
Spd
kts
Gust
kts
22/11:30pm - - - - - N 15 22 8 12 - - -
22/11:00pm - - - - - ENE 7 9 4 5 - - -
22/10:30pm - - - - - NNE 11 13 6 7 - - -
22/10:00pm - - - - - N 13 19 7 10 - - -
22/09:30pm - - - - - WNW 22 32 12 17 - - -
22/09:00pm - - - - - NW 43 54 23 29 - - -
22/08:30pm - - - - - NW 35 41 19 22 - - -
22/08:00pm - - - - - NW 32 37 17 20 - - -
22/07:30pm - - - - - NW 30 33 16 18 - - -
22/07:00pm - - - - - WNW 30 35 16 19 - - -
22/06:30pm - - - - - WNW 33 37 18 20 - - -
22/06:00pm - - - - - WNW 35 41 19 22 - - -
22/05:30pm - - - - - WNW 37 43 20 23 - - -
22/05:00pm - - - - - NW 41 50 22 27 - - -
22/04:30pm - - - - - NW 39 48 21 26 - - -
22/04:00pm - - - - - NW 32 39 17 21 - - -
22/03:30pm - - - - - NW 43 54 23 29 - - -
22/03:00pm - - - - - NW 44 54 24 29 - - -
22/02:30pm - - - - - NW 46 54 25 29 - - -
22/02:00pm - - - - - NW 44 56 24 30 - - -
22/01:30pm - - - - - NW 39 48 21 26 - - -
22/01:00pm - - - - - NW 30 37 16 20 - - -
22/12:30pm - - - - - NW 35 44 19 24 - - -
22/12:00pm - - - - - NW 33 41 18 22 - - -
22/11:30am - - - - - NNE 22 33 12 18 - - -
22/11:00am - - - - - NNE 24 37 13 20 - - -
22/10:30am - - - - - NE 28 46 15 25 - - -
22/10:27am - - - - - NNE 28 46 15 25 - - -
22/10:00am - - - - - NNE 28 41 15 22 - - -
22/09:57am - - - - - NNE 28 41 15 22 - - -
22/09:30am - - - - - WNW 13 17 7 9 - - -
22/09:00am - - - - - WNW 13 22 7 12 - - -
22/08:30am - - - - - NNE 19 30 10 16 - - -
22/08:00am - - - - - N 19 32 10 17 - - -
22/07:30am - - - - - ENE 30 50 16 27 - - -
22/07:29am - - - - - ENE 30 50 16 27 - - -
22/07:00am - - - - - E 26 39 14 21 - - -
22/06:30am - - - - - E 28 39 15 21 - - -
22/06:00am - - - - - E 28 41 15 22 - - -
22/05:30am - - - - - E 28 44 15 24 - - -
22/05:00am - - - - - E 32 50 17 27 - - -
22/04:51am - - - - - E 30 50 16 27 - - -
22/04:30am - - - - - E 32 48 17 26 - - -
22/04:00am - - - - - E 26 37 14 20 - - -
22/03:30am - - - - - E 26 33 14 18 - - -
22/03:00am - - - - - E 22 33 12 18 - - -
22/02:30am - - - - - E 20 30 11 16 - - -
22/02:00am - - - - - E 19 26 10 14 - - -
22/01:30am - - - - - E 17 26 9 14 - - -
22/01:00am - - - - - E 17 24 9 13 - - -
22/12:30am - - - - - E 17 22 9 12 - - -
22/12:00am - - - - - E 13 15 7 8 - - -
 
Date/Time
WST
Temp
°C
App
Temp
°C
Dew
Point
Rel
Hum
%
Delta-T
°C
Wind Press
QNH
hPa
Press
MSL
hPa
Rain
since 9 am
mm
Dir
 
Spd
km/h
Gust
km/h
Spd
kts
Gust
kts
21/11:30pm - - - - - E 9 13 5 7 - - -
21/11:00pm - - - - - SSE 7 9 4 5 - - -
21/10:30pm - - - - - ESE 13 17 7 9 - - -
21/10:00pm - - - - - ESE 13 17 7 9 - - -
21/09:30pm - - - - - SE 13 17 7 9 - - -
21/09:00pm - - - - - SE 17 20 9 11 - - -
21/08:30pm - - - - - SE 17 24 9 13 - - -
21/08:00pm - - - - - SSE 15 19 8 10 - - -
21/07:30pm - - - - - S 20 26 11 14 - - -
21/07:00pm - - - - - S 20 26 11 14 - - -
21/06:30pm - - - - - S 24 32 13 17 - - -
21/06:00pm - - - - - S 30 33 16 18 - - -
21/05:30pm - - - - - S 30 33 16 18 - - -
21/05:00pm - - - - - S 28 33 15 18 - - -
21/04:30pm - - - - - S 28 32 15 17 - - -
21/04:00pm - - - - - S 30 35 16 19 - - -
21/03:30pm - - - - - S 28 30 15 16 - - -
21/03:00pm - - - - - S 26 30 14 16 - - -
21/02:30pm - - - - - S 26 30 14 16 - - -
21/02:00pm - - - - - S 26 30 14 16 - - -
21/01:30pm - - - - - SSW 26 30 14 16 - - -
21/01:00pm - - - - - SSW 28 33 15 18 - - -
21/12:30pm - - - - - SSW 28 32 15 17 - - -
21/12:00pm - - - - - SSW 26 30 14 16 - - -
21/11:30am - - - - - SW 24 28 13 15 - - -
21/11:00am - - - - - SSE 11 17 6 9 - - -
21/10:30am - - - - - ENE 11 17 6 9 - - -
21/10:00am - - - - - ESE 13 17 7 9 - - -
21/09:30am - - - - - ESE 13 20 7 11 - - -
21/09:00am - - - - - E 13 19 7 10 - - -
21/08:30am - - - - - E 13 19 7 10 - - -
21/08:00am - - - - - E 17 22 9 12 - - -
21/07:30am - - - - - E 15 26 8 14 - - -
21/07:00am - - - - - E 15 20 8 11 - - -
21/06:30am - - - - - E 15 19 8 10 - - -
21/06:00am - - - - - E 17 17 9 9 - - -
21/05:30am - - - - - E 15 17 8 9 - - -
21/05:00am - - - - - ENE 15 17 8 9 - - -
21/04:30am - - - - - ENE 15 17 8 9 - - -
21/04:00am - - - - - E 15 17 8 9 - - -
21/03:30am - - - - - E 15 17 8 9 - - -
21/03:00am - - - - - E 15 15 8 8 - - -
21/02:30am - - - - - ENE 15 15 8 8 - - -
21/02:00am - - - - - ENE 13 15 7 8 - - -
21/01:30am - - - - - ENE 13 15 7 8 - - -
21/01:00am - - - - - E 13 13 7 7 - - -
21/12:30am - - - - - E 13 13 7 7 - - -
21/12:00am - - - - - E 13 15 7 8 - - -
 
Date/Time
WST
Temp
°C
App
Temp
°C
Dew
Point
Rel
Hum
%
Delta-T
°C
Wind Press
QNH
hPa
Press
MSL
hPa
Rain
since 9 am
mm
Dir
 
Spd
km/h
Gust
km/h
Spd
kts
Gust
kts
20/11:30pm - - - - - SE 13 15 7 8 - - -
20/11:00pm - - - - - SE 11 15 6 8 - - -
20/10:30pm - - - - - SSE 13 17 7 9 - - -
20/10:00pm - - - - - S 20 24 11 13 - - -
20/09:30pm - - - - - S 20 28 11 15 - - -
20/09:00pm - - - - - S 20 28 11 15 - - -
20/08:30pm - - - - - S 24 30 13 16 - - -

Other Formats:

Comma delimited format used in spreadsheet applications
http://www.bom.gov.au/fwo/IDW60801/IDW60801.94607.axf

JavaScript Object Notation format (JSON) in row-major order
http://www.bom.gov.au/fwo/IDW60801/IDW60801.94607.json